Hikarimaru No.17 — JD2956 — position and weather

sailwx.info

Track history (hours):
 
Tides and Currents Weather Stations Pressure Air Temp Water Temp Dewpoint Dewpoint Depression Visibility Wind Speed Wind Dir Waves Ship Positions

Hikarimaru No.17

Last reported at 2017-Mar-24 06:24 UTC. Time now 2017-Mar-24 08:11 UTC.
Position N 34°10' E 135°09'.

Length 105 m; draft 5.5 m.

Type: Tanker. MMSI: 431000984.

Date/timePositionNaut miles runAvg speedWind from/ knotsBaromVisibWave heightAir tempDewpointWater temp
2017-Mar-24 06:24N 34°10' E 135°09'0 0.1
2017-Mar-24 05:27N 34°10' E 135°09'0 0.0
2017-Mar-24 04:09N 34°10' E 135°09'0 0.0
2017-Mar-24 03:33N 34°10' E 135°09'0 0.0
2017-Mar-24 02:33N 34°10' E 135°09'0 0.0
2017-Mar-24 01:33N 34°10' E 135°09'0 0.0
2017-Mar-24 00:30N 34°10' E 135°09'0 0.1
2017-Mar-23 23:33N 34°10' E 135°09'0 0.1
2017-Mar-23 22:33N 34°10' E 135°09'0 0.0
2017-Mar-23 21:24N 34°10' E 135°09'0 0.0
2017-Mar-23 20:33N 34°10' E 135°09'0 0.0
2017-Mar-23 19:30N 34°10' E 135°09'0 0.0
2017-Mar-23 18:33N 34°10' E 135°09'0 0.1
2017-Mar-23 17:33N 34°10' E 135°09'0 0.0
2017-Mar-23 16:30N 34°10' E 135°09'0 0.1
2017-Mar-23 15:30N 34°10' E 135°09'0 0.1
2017-Mar-23 14:33N 34°10' E 135°09'0 0.0
2017-Mar-23 13:33N 34°10' E 135°09'0 0.0
2017-Mar-23 12:30N 34°10' E 135°09'0 0.0
2017-Mar-23 11:30N 34°10' E 135°09'0 0.0
2017-Mar-23 10:33N 34°10' E 135°09'0 0.1
2017-Mar-23 09:33N 34°10' E 135°09'0 0.1
2017-Mar-23 08:33N 34°10' E 135°09'0 0.0
2017-Mar-23 07:33N 34°10' E 135°09'0 0.0
2017-Mar-23 06:33N 34°10' E 135°09'0 0.0
2017-Mar-23 05:33N 34°10' E 135°09'2 1.7
2017-Mar-23 04:33N 34°09' E 135°07'5 4.6
2017-Mar-23 03:34N 34°11' E 135°02'5 5.1
2017-Mar-23 02:33N 34°09' E 135°08'3 3.0
2017-Mar-23 01:32N 34°09' E 135°11'0 0.0
2017-Mar-23 00:26N 34°09' E 135°11'0 0.0
2017-Mar-22 23:26N 34°09' E 135°11'2 2.5
2017-Mar-22 22:31N 34°09' E 135°08'0 0.0
2017-Mar-22 21:31N 34°09' E 135°08'0 0.0
2017-Mar-22 20:28N 34°09' E 135°08'0 0.0
2017-Mar-22 19:31N 34°09' E 135°08'0 0.0
2017-Mar-22 18:28N 34°09' E 135°08'0 0.0
2017-Mar-22 17:31N 34°09' E 135°08'0 0.0
2017-Mar-22 16:31N 34°09' E 135°08'0 0.0
2017-Mar-22 15:31N 34°09' E 135°08'0 0.0
2017-Mar-22 14:31N 34°09' E 135°08'0 0.0
2017-Mar-22 13:28N 34°09' E 135°08'0 0.0
2017-Mar-22 12:33N 34°09' E 135°08'2 0.5
2017-Mar-22 08:13N 34°07' E 135°07'0 0.2
2017-Mar-22 06:33N 34°08' E 135°07'5 4.5
2017-Mar-22 05:22N 34°13' E 135°09'0 0.0
2017-Mar-22 04:31N 34°13' E 135°09'0 0.0
2017-Mar-22 03:22N 34°13' E 135°09'0 0.0
2017-Mar-22 02:31N 34°13' E 135°09'0 0.0
2017-Mar-22 01:31N 34°13' E 135°09'0 0.0
2017-Mar-22 00:25N 34°13' E 135°09'0 0.0
2017-Mar-21 23:31N 34°13' E 135°09'0 0.0
2017-Mar-21 22:31N 34°13' E 135°09'0 0.0
2017-Mar-21 21:31N 34°13' E 135°09'0 0.0
2017-Mar-21 20:31N 34°13' E 135°09'0 0.0
2017-Mar-21 19:31N 34°13' E 135°09'0 0.0
2017-Mar-21 18:31N 34°13' E 135°09'0 0.0
2017-Mar-21 17:28N 34°13' E 135°09'0 0.0
2017-Mar-21 16:31N 34°13' E 135°09'0 0.0
2017-Mar-21 15:31N 34°13' E 135°09'0 0.0
2017-Mar-21 14:31N 34°13' E 135°09'0 0.0
2017-Mar-21 13:28N 34°13' E 135°09'0 0.0
2017-Mar-21 12:31N 34°13' E 135°09'0 0.0
2017-Mar-21 11:31N 34°13' E 135°09'0 0.0
2017-Mar-21 10:28N 34°13' E 135°09'0 0.0
2017-Mar-21 09:31N 34°13' E 135°09'0 0.0
2017-Mar-21 08:31N 34°13' E 135°09'3 2.8
2017-Mar-21 07:34N 34°13' E 135°06'1110.6
2017-Mar-21 06:33N 34°23' E 135°00'1312.8
2017-Mar-21 05:33N 34°36' E 135°03'7 0.3
2017-Mar-20 02:05N 34°37' E 134°54'712.8
2017-Mar-20 01:33N 34°37' E 135°02'2311.3
2017-Mar-19 23:33N 34°14' E 135°00'7 7.4
2017-Mar-19 22:33N 34°08' E 135°05'0 0.0
2017-Mar-19 21:30N 34°08' E 135°05'0 0.0
2017-Mar-19 20:30N 34°08' E 135°05'0 0.0
2017-Mar-19 19:24N 34°08' E 135°05'0 0.0
2017-Mar-19 18:30N 34°08' E 135°05'0 0.0
2017-Mar-19 17:33N 34°08' E 135°05'0 0.0
2017-Mar-19 16:18N 34°08' E 135°05'0 0.0
2017-Mar-19 14:18N 34°08' E 135°05'0 0.0
2017-Mar-19 12:21N 34°08' E 135°05'0 0.0
2017-Mar-19 11:21N 34°08' E 135°05'0 0.1
2017-Mar-19 10:33N 34°08' E 135°05'0 0.0
2017-Mar-19 09:33N 34°08' E 135°05'0 0.0
2017-Mar-19 08:33N 34°08' E 135°05'0 0.0
2017-Mar-19 07:33N 34°08' E 135°05'0 0.0
2017-Mar-19 06:33N 34°08' E 135°05'0 0.0
2017-Mar-19 05:21N 34°08' E 135°05'2 0.4
2017-Mar-19 00:33N 34°08' E 135°07'2 2.4
2017-Mar-18 23:33N 34°09' E 135°09'0 0.0
2017-Mar-18 22:30N 34°09' E 135°09'0 0.0
2017-Mar-18 21:30N 34°09' E 135°09'0 0.0
2017-Mar-18 20:33N 34°09' E 135°09'0 0.0
2017-Mar-18 19:33N 34°09' E 135°09'0 0.0
2017-Mar-18 18:30N 34°09' E 135°09'0 0.0
2017-Mar-18 17:30N 34°09' E 135°09'0 0.0
2017-Mar-18 16:33N 34°09' E 135°09'0 0.0
2017-Mar-18 15:30N 34°09' E 135°09'0 0.0
2017-Mar-18 14:33N 34°09' E 135°09'0 0.0
2017-Mar-18 13:27N 34°09' E 135°09'0 0.0
2017-Mar-18 12:33N 34°09' E 135°09'0 0.0
2017-Mar-18 11:33N 34°09' E 135°09'0 0.0
2017-Mar-18 10:30N 34°09' E 135°09'0 0.1
2017-Mar-18 09:33N 34°09' E 135°09'0 0.0
2017-Mar-18 08:33N 34°09' E 135°09'0 0.0
2017-Mar-18 07:33N 34°09' E 135°09'0 0.0
2017-Mar-18 06:21N 34°09' E 135°09'0 0.0
2017-Mar-18 05:33N 34°09' E 135°09'0 0.1
2017-Mar-18 04:30N 34°09' E 135°09'0 0.1
2017-Mar-18 01:13N 34°09' E 135°09'1 1.0
2017-Mar-18 00:31N 34°10' E 135°09'0 0.0
2017-Mar-17 23:31N 34°10' E 135°09'0 0.1
2017-Mar-17 22:31N 34°10' E 135°09'0 0.0
2017-Mar-17 21:31N 34°10' E 135°09'0 0.0
2017-Mar-17 20:31N 34°10' E 135°09'0 0.0
2017-Mar-17 19:22N 34°10' E 135°09'0 0.0
2017-Mar-17 18:25N 34°10' E 135°09'0 0.0
2017-Mar-17 17:31N 34°10' E 135°09'0 0.0
2017-Mar-17 16:31N 34°10' E 135°09'0 0.0
2017-Mar-17 15:25N 34°10' E 135°09'0 0.0
2017-Mar-17 14:31N 34°10' E 135°09'0 0.0
2017-Mar-17 13:28N 34°10' E 135°09'0 0.0
2017-Mar-17 12:31N 34°10' E 135°09'0 0.0
2017-Mar-17 11:22N 34°10' E 135°09'0 0.0
2017-Mar-17 10:31N 34°10' E 135°09'0 0.0
2017-Mar-17 09:28N 34°10' E 135°09'0 0.0
2017-Mar-17 08:31N 34°10' E 135°09'0 0.0
2017-Mar-17 07:31N 34°10' E 135°09'0 0.0
2017-Mar-17 06:31N 34°10' E 135°09'0 0.1
2017-Mar-17 05:31N 34°10' E 135°09'6 6.7
2017-Mar-17 04:33N 34°09' E 135°01'1 1.1
2017-Mar-17 03:34N 34°10' E 135°01'8 4.0
2017-Mar-17 01:28N 34°09' E 135°11'0 0.0
2017-Mar-17 00:31N 34°09' E 135°11'0 0.1
2017-Mar-16 23:21N 34°09' E 135°11'2 2.4
2017-Mar-16 22:32N 34°09' E 135°09'0 0.0
2017-Mar-16 21:29N 34°09' E 135°09'0 0.0
2017-Mar-16 20:29N 34°09' E 135°09'0 0.0
2017-Mar-16 19:29N 34°09' E 135°09'0 0.0
2017-Mar-16 18:32N 34°09' E 135°09'0 0.0
2017-Mar-16 17:32N 34°09' E 135°09'0 0.0
2017-Mar-16 16:32N 34°09' E 135°09'0 0.0
2017-Mar-16 15:32N 34°09' E 135°09'0 0.0
2017-Mar-16 14:32N 34°09' E 135°09'0 0.0
2017-Mar-16 13:29N 34°09' E 135°09'0 0.0
2017-Mar-16 12:32N 34°09' E 135°09'1 1.1
2017-Mar-16 11:33N 34°09' E 135°08'2 0.3
2017-Mar-16 07:04N 34°07' E 135°07'2 3.6
2017-Mar-16 06:25N 34°10' E 135°08'0 0.0
2017-Mar-16 05:31N 34°10' E 135°08'0 0.0
2017-Mar-16 04:31N 34°10' E 135°08'0 0.0
2017-Mar-16 03:28N 34°10' E 135°08'0 0.0
2017-Mar-16 02:31N 34°10' E 135°08'0 0.0
2017-Mar-16 01:31N 34°10' E 135°08'0 0.0
2017-Mar-16 00:31N 34°10' E 135°08'0 0.0
2017-Mar-15 23:31N 34°10' E 135°08'0 0.0
2017-Mar-15 22:31N 34°10' E 135°08'0 0.0
2017-Mar-15 21:31N 34°10' E 135°08'0 0.0
2017-Mar-15 20:31N 34°10' E 135°08'0 0.0
2017-Mar-15 19:31N 34°10' E 135°08'0 0.0
2017-Mar-15 18:31N 34°10' E 135°08'0 0.0
2017-Mar-15 17:28N 34°10' E 135°08'0 0.0
2017-Mar-15 16:31N 34°10' E 135°08'0 0.0
2017-Mar-15 15:31N 34°10' E 135°08'0 0.0
2017-Mar-15 14:31N 34°10' E 135°08'0 0.0
2017-Mar-15 13:31N 34°10' E 135°08'0 0.0
2017-Mar-15 12:28N 34°10' E 135°08'0 0.1
2017-Mar-15 11:31N 34°10' E 135°08'0 0.0
2017-Mar-15 10:28N 34°10' E 135°08'0 0.1
2017-Mar-15 09:28N 34°10' E 135°08'0 0.0
2017-Mar-15 08:31N 34°10' E 135°08'0 0.1
2017-Mar-15 07:31N 34°10' E 135°08'0 0.0
2017-Mar-15 06:28N 34°10' E 135°08'0 0.0
2017-Mar-15 05:31N 34°10' E 135°08'4 1.8
2017-Mar-15 03:33N 34°08' E 135°05'0 0.0
2017-Mar-15 02:33N 34°08' E 135°05'0 0.1
2017-Mar-15 01:33N 34°08' E 135°05'0 0.0
2017-Mar-15 00:27N 34°08' E 135°05'0 0.0
2017-Mar-14 23:30N 34°08' E 135°05'0 0.0
2017-Mar-14 22:24N 34°08' E 135°05'0 0.0
2017-Mar-14 21:30N 34°08' E 135°05'0 0.0
2017-Mar-14 20:27N 34°08' E 135°05'0 0.1
2017-Mar-14 19:30N 34°08' E 135°05'0 0.0
2017-Mar-14 18:33N 34°08' E 135°05'0 0.0
2017-Mar-14 17:30N 34°08' E 135°05'0 0.0
2017-Mar-14 16:24N 34°08' E 135°05'0 0.0
2017-Mar-14 15:33N 34°08' E 135°05'0 0.0
2017-Mar-14 14:30N 34°08' E 135°05'0 0.0
2017-Mar-14 13:30N 34°08' E 135°05'0 0.0
2017-Mar-14 12:33N 34°08' E 135°05'0 0.0
2017-Mar-14 11:33N 34°08' E 135°05'0 0.0
2017-Mar-14 10:33N 34°08' E 135°05'0 0.0
2017-Mar-14 09:30N 34°08' E 135°05'0 0.1
2017-Mar-14 08:33N 34°08' E 135°05'0 0.0
2017-Mar-14 07:24N 34°08' E 135°05'0 0.1
2017-Mar-14 06:33N 34°08' E 135°05'  
Track history (hours):
 
Tides and Currents Weather Stations Pressure Air Temp Water Temp Dewpoint Dewpoint Depression Visibility Wind Speed Wind Dir Waves Ship Positions

Hikarimaru No.17

Last reported at 2017-Mar-24 06:24 UTC. Time now 2017-Mar-24 08:11 UTC.
Position N 34°10' E 135°09'.

Length 105 m; draft 5.5 m.

Type: Tanker. MMSI: 431000984.

Date/timePositionNaut miles runAvg speedWind from/ knotsBaromVisibWave heightAir tempDewpointWater temp
2017-Mar-24 06:24N 34°10' E 135°09'0 0.1
2017-Mar-24 05:27N 34°10' E 135°09'0 0.0
2017-Mar-24 04:09N 34°10' E 135°09'0 0.0
2017-Mar-24 03:33N 34°10' E 135°09'0 0.0
2017-Mar-24 02:33N 34°10' E 135°09'0 0.0
2017-Mar-24 01:33N 34°10' E 135°09'0 0.0
2017-Mar-24 00:30N 34°10' E 135°09'0 0.1
2017-Mar-23 23:33N 34°10' E 135°09'0 0.1
2017-Mar-23 22:33N 34°10' E 135°09'0 0.0
2017-Mar-23 21:24N 34°10' E 135°09'0 0.0
2017-Mar-23 20:33N 34°10' E 135°09'0 0.0
2017-Mar-23 19:30N 34°10' E 135°09'0 0.0
2017-Mar-23 18:33N 34°10' E 135°09'0 0.1
2017-Mar-23 17:33N 34°10' E 135°09'0 0.0
2017-Mar-23 16:30N 34°10' E 135°09'0 0.1
2017-Mar-23 15:30N 34°10' E 135°09'0 0.1
2017-Mar-23 14:33N 34°10' E 135°09'0 0.0
2017-Mar-23 13:33N 34°10' E 135°09'0 0.0
2017-Mar-23 12:30N 34°10' E 135°09'0 0.0
2017-Mar-23 11:30N 34°10' E 135°09'0 0.0
2017-Mar-23 10:33N 34°10' E 135°09'0 0.1
2017-Mar-23 09:33N 34°10' E 135°09'0 0.1
2017-Mar-23 08:33N 34°10' E 135°09'0 0.0
2017-Mar-23 07:33N 34°10' E 135°09'0 0.0
2017-Mar-23 06:33N 34°10' E 135°09'0 0.0
2017-Mar-23 05:33N 34°10' E 135°09'2 1.7
2017-Mar-23 04:33N 34°09' E 135°07'5 4.6
2017-Mar-23 03:34N 34°11' E 135°02'5 5.1
2017-Mar-23 02:33N 34°09' E 135°08'3 3.0
2017-Mar-23 01:32N 34°09' E 135°11'0 0.0
2017-Mar-23 00:26N 34°09' E 135°11'0 0.0
2017-Mar-22 23:26N 34°09' E 135°11'2 2.5
2017-Mar-22 22:31N 34°09' E 135°08'0 0.0
2017-Mar-22 21:31N 34°09' E 135°08'0 0.0
2017-Mar-22 20:28N 34°09' E 135°08'0 0.0
2017-Mar-22 19:31N 34°09' E 135°08'0 0.0
2017-Mar-22 18:28N 34°09' E 135°08'0 0.0
2017-Mar-22 17:31N 34°09' E 135°08'0 0.0
2017-Mar-22 16:31N 34°09' E 135°08'0 0.0
2017-Mar-22 15:31N 34°09' E 135°08'0 0.0
2017-Mar-22 14:31N 34°09' E 135°08'0 0.0
2017-Mar-22 13:28N 34°09' E 135°08'0 0.0
2017-Mar-22 12:33N 34°09' E 135°08'2 0.5
2017-Mar-22 08:13N 34°07' E 135°07'0 0.2
2017-Mar-22 06:33N 34°08' E 135°07'5 4.5
2017-Mar-22 05:22N 34°13' E 135°09'0 0.0
2017-Mar-22 04:31N 34°13' E 135°09'0 0.0
2017-Mar-22 03:22N 34°13' E 135°09'0 0.0
2017-Mar-22 02:31N 34°13' E 135°09'0 0.0
2017-Mar-22 01:31N 34°13' E 135°09'0 0.0
2017-Mar-22 00:25N 34°13' E 135°09'0 0.0
2017-Mar-21 23:31N 34°13' E 135°09'0 0.0
2017-Mar-21 22:31N 34°13' E 135°09'0 0.0
2017-Mar-21 21:31N 34°13' E 135°09'0 0.0
2017-Mar-21 20:31N 34°13' E 135°09'0 0.0
2017-Mar-21 19:31N 34°13' E 135°09'0 0.0
2017-Mar-21 18:31N 34°13' E 135°09'0 0.0
2017-Mar-21 17:28N 34°13' E 135°09'0 0.0
2017-Mar-21 16:31N 34°13' E 135°09'0 0.0
2017-Mar-21 15:31N 34°13' E 135°09'0 0.0
2017-Mar-21 14:31N 34°13' E 135°09'0 0.0
2017-Mar-21 13:28N 34°13' E 135°09'0 0.0
2017-Mar-21 12:31N 34°13' E 135°09'0 0.0
2017-Mar-21 11:31N 34°13' E 135°09'0 0.0
2017-Mar-21 10:28N 34°13' E 135°09'0 0.0
2017-Mar-21 09:31N 34°13' E 135°09'0 0.0
2017-Mar-21 08:31N 34°13' E 135°09'3 2.8
2017-Mar-21 07:34N 34°13' E 135°06'1110.6
2017-Mar-21 06:33N 34°23' E 135°00'1312.8
2017-Mar-21 05:33N 34°36' E 135°03'7 0.3
2017-Mar-20 02:05N 34°37' E 134°54'712.8
2017-Mar-20 01:33N 34°37' E 135°02'2311.3
2017-Mar-19 23:33N 34°14' E 135°00'7 7.4
2017-Mar-19 22:33N 34°08' E 135°05'0 0.0
2017-Mar-19 21:30N 34°08' E 135°05'0 0.0
2017-Mar-19 20:30N 34°08' E 135°05'0 0.0
2017-Mar-19 19:24N 34°08' E 135°05'0 0.0
2017-Mar-19 18:30N 34°08' E 135°05'0 0.0
2017-Mar-19 17:33N 34°08' E 135°05'0 0.0
2017-Mar-19 16:18N 34°08' E 135°05'0 0.0
2017-Mar-19 14:18N 34°08' E 135°05'0 0.0
2017-Mar-19 12:21N 34°08' E 135°05'0 0.0
2017-Mar-19 11:21N 34°08' E 135°05'0 0.1
2017-Mar-19 10:33N 34°08' E 135°05'0 0.0
2017-Mar-19 09:33N 34°08' E 135°05'0 0.0
2017-Mar-19 08:33N 34°08' E 135°05'0 0.0
2017-Mar-19 07:33N 34°08' E 135°05'0 0.0
2017-Mar-19 06:33N 34°08' E 135°05'0 0.0
2017-Mar-19 05:21N 34°08' E 135°05'2 0.4
2017-Mar-19 00:33N 34°08' E 135°07'2 2.4
2017-Mar-18 23:33N 34°09' E 135°09'0 0.0
2017-Mar-18 22:30N 34°09' E 135°09'0 0.0
2017-Mar-18 21:30N 34°09' E 135°09'0 0.0
2017-Mar-18 20:33N 34°09' E 135°09'0 0.0
2017-Mar-18 19:33N 34°09' E 135°09'0 0.0
2017-Mar-18 18:30N 34°09' E 135°09'0 0.0
2017-Mar-18 17:30N 34°09' E 135°09'0 0.0
2017-Mar-18 16:33N 34°09' E 135°09'0 0.0
2017-Mar-18 15:30N 34°09' E 135°09'0 0.0
2017-Mar-18 14:33N 34°09' E 135°09'0 0.0
2017-Mar-18 13:27N 34°09' E 135°09'0 0.0
2017-Mar-18 12:33N 34°09' E 135°09'0 0.0
2017-Mar-18 11:33N 34°09' E 135°09'0 0.0
2017-Mar-18 10:30N 34°09' E 135°09'0 0.1
2017-Mar-18 09:33N 34°09' E 135°09'0 0.0
2017-Mar-18 08:33N 34°09' E 135°09'0 0.0
2017-Mar-18 07:33N 34°09' E 135°09'0 0.0
2017-Mar-18 06:21N 34°09' E 135°09'0 0.0
2017-Mar-18 05:33N 34°09' E 135°09'0 0.1
2017-Mar-18 04:30N 34°09' E 135°09'0 0.1
2017-Mar-18 01:13N 34°09' E 135°09'1 1.0
2017-Mar-18 00:31N 34°10' E 135°09'0 0.0
2017-Mar-17 23:31N 34°10' E 135°09'0 0.1
2017-Mar-17 22:31N 34°10' E 135°09'0 0.0
2017-Mar-17 21:31N 34°10' E 135°09'0 0.0
2017-Mar-17 20:31N 34°10' E 135°09'0 0.0
2017-Mar-17 19:22N 34°10' E 135°09'0 0.0
2017-Mar-17 18:25N 34°10' E 135°09'0 0.0
2017-Mar-17 17:31N 34°10' E 135°09'0 0.0
2017-Mar-17 16:31N 34°10' E 135°09'0 0.0
2017-Mar-17 15:25N 34°10' E 135°09'0 0.0
2017-Mar-17 14:31N 34°10' E 135°09'0 0.0
2017-Mar-17 13:28N 34°10' E 135°09'0 0.0
2017-Mar-17 12:31N 34°10' E 135°09'0 0.0
2017-Mar-17 11:22N 34°10' E 135°09'0 0.0
2017-Mar-17 10:31N 34°10' E 135°09'0 0.0
2017-Mar-17 09:28N 34°10' E 135°09'0 0.0
2017-Mar-17 08:31N 34°10' E 135°09'0 0.0
2017-Mar-17 07:31N 34°10' E 135°09'0 0.0
2017-Mar-17 06:31N 34°10' E 135°09'0 0.1
2017-Mar-17 05:31N 34°10' E 135°09'6 6.7
2017-Mar-17 04:33N 34°09' E 135°01'1 1.1
2017-Mar-17 03:34N 34°10' E 135°01'8 4.0
2017-Mar-17 01:28N 34°09' E 135°11'0 0.0
2017-Mar-17 00:31N 34°09' E 135°11'0 0.1
2017-Mar-16 23:21N 34°09' E 135°11'2 2.4
2017-Mar-16 22:32N 34°09' E 135°09'0 0.0
2017-Mar-16 21:29N 34°09' E 135°09'0 0.0
2017-Mar-16 20:29N 34°09' E 135°09'0 0.0
2017-Mar-16 19:29N 34°09' E 135°09'0 0.0
2017-Mar-16 18:32N 34°09' E 135°09'0 0.0
2017-Mar-16 17:32N 34°09' E 135°09'0 0.0
2017-Mar-16 16:32N 34°09' E 135°09'0 0.0
2017-Mar-16 15:32N 34°09' E 135°09'0 0.0
2017-Mar-16 14:32N 34°09' E 135°09'0 0.0
2017-Mar-16 13:29N 34°09' E 135°09'0 0.0
2017-Mar-16 12:32N 34°09' E 135°09'1 1.1
2017-Mar-16 11:33N 34°09' E 135°08'2 0.3
2017-Mar-16 07:04N 34°07' E 135°07'2 3.6
2017-Mar-16 06:25N 34°10' E 135°08'0 0.0
2017-Mar-16 05:31N 34°10' E 135°08'0 0.0
2017-Mar-16 04:31N 34°10' E 135°08'0 0.0
2017-Mar-16 03:28N 34°10' E 135°08'0 0.0
2017-Mar-16 02:31N 34°10' E 135°08'0 0.0
2017-Mar-16 01:31N 34°10' E 135°08'0 0.0
2017-Mar-16 00:31N 34°10' E 135°08'0 0.0
2017-Mar-15 23:31N 34°10' E 135°08'0 0.0
2017-Mar-15 22:31N 34°10' E 135°08'0 0.0
2017-Mar-15 21:31N 34°10' E 135°08'0 0.0
2017-Mar-15 20:31N 34°10' E 135°08'0 0.0
2017-Mar-15 19:31N 34°10' E 135°08'0 0.0
2017-Mar-15 18:31N 34°10' E 135°08'0 0.0
2017-Mar-15 17:28N 34°10' E 135°08'0 0.0
2017-Mar-15 16:31N 34°10' E 135°08'0 0.0
2017-Mar-15 15:31N 34°10' E 135°08'0 0.0
2017-Mar-15 14:31N 34°10' E 135°08'0 0.0
2017-Mar-15 13:31N 34°10' E 135°08'0 0.0
2017-Mar-15 12:28N 34°10' E 135°08'0 0.1
2017-Mar-15 11:31N 34°10' E 135°08'0 0.0
2017-Mar-15 10:28N 34°10' E 135°08'0 0.1
2017-Mar-15 09:28N 34°10' E 135°08'0 0.0
2017-Mar-15 08:31N 34°10' E 135°08'0 0.1
2017-Mar-15 07:31N 34°10' E 135°08'0 0.0
2017-Mar-15 06:28N 34°10' E 135°08'0 0.0
2017-Mar-15 05:31N 34°10' E 135°08'4 1.8
2017-Mar-15 03:33N 34°08' E 135°05'0 0.0
2017-Mar-15 02:33N 34°08' E 135°05'0 0.1
2017-Mar-15 01:33N 34°08' E 135°05'0 0.0
2017-Mar-15 00:27N 34°08' E 135°05'0 0.0
2017-Mar-14 23:30N 34°08' E 135°05'0 0.0
2017-Mar-14 22:24N 34°08' E 135°05'0 0.0
2017-Mar-14 21:30N 34°08' E 135°05'0 0.0
2017-Mar-14 20:27N 34°08' E 135°05'0 0.1
2017-Mar-14 19:30N 34°08' E 135°05'0 0.0
2017-Mar-14 18:33N 34°08' E 135°05'0 0.0
2017-Mar-14 17:30N 34°08' E 135°05'0 0.0
2017-Mar-14 16:24N 34°08' E 135°05'0 0.0
2017-Mar-14 15:33N 34°08' E 135°05'0 0.0
2017-Mar-14 14:30N 34°08' E 135°05'0 0.0
2017-Mar-14 13:30N 34°08' E 135°05'0 0.0
2017-Mar-14 12:33N 34°08' E 135°05'0 0.0
2017-Mar-14 11:33N 34°08' E 135°05'0 0.0
2017-Mar-14 10:33N 34°08' E 135°05'0 0.0
2017-Mar-14 09:30N 34°08' E 135°05'0 0.1
2017-Mar-14 08:33N 34°08' E 135°05'0 0.0
2017-Mar-14 07:24N 34°08' E 135°05'0 0.1
2017-Mar-14 06:33N 34°08' E 135°05'  

Dump ship's entire track history